< Cyclone 200605 2006 Season Cyclone 200608 >
Cyclone 200606 (DARYL)
General InformationTrack Information on Google MapsDetailed Wind InformationList of All Images || ResourceGoogle EarthGE AnimationAtom FeedGeoJSON
Detalied Best Track (Time Zone = UTC)
Year Month Day Hour Lat. Long. Pressure (hPa) Wind (kt) Class Image Chart
2006 1 17 00 -15.2 125.6 998 20 2 Image --
2006 1 17 06 -15.2 125.3 996 20 2 Image --
2006 1 17 12 -15.3 124.9 996 20 2 Image --
2006 1 17 18 -15.4 124.6 994 25 2 Image --
2006 1 18 00 -15.5 124.2 994 25 2 Image --
2006 1 18 06 -15.6 123.6 992 25 2 Image --
2006 1 18 12 -15.7 123.3 990 35 3 Image --
2006 1 18 18 -15.7 123.1 984 40 3 Image --
2006 1 19 00 -16.0 123.0 980 45 3 Image --
2006 1 19 06 -16.4 122.5 980 45 3 Image --
2006 1 19 12 -16.7 121.9 976 50 4 Image --
2006 1 19 18 -16.9 121.1 976 55 4 Image --
2006 1 20 00 -17.3 121.0 976 55 4 Image --
2006 1 20 06 -18.0 120.5 976 50 4 Image --
2006 1 20 12 -18.5 119.5 976 50 4 Image --
2006 1 20 18 -18.9 117.7 976 50 4 Image --
2006 1 21 00 -19.3 116.7 976 50 4 Image --
2006 1 21 06 -19.5 116.3 976 50 4 Image --
2006 1 21 12 -19.7 115.8 976 50 4 Image --
2006 1 21 18 -20.0 115.4 980 45 3 Image --
2006 1 22 00 -20.1 114.8 986 35 3 Image --
2006 1 22 06 -20.3 114.1 990 30 2 Image --
2006 1 22 12 -20.6 113.8 992 25 2 Image --
2006 1 22 18 -20.8 112.9 994 25 2 Image --
2006 1 23 00 -22.0 111.7 996 25 2 Image --
< Cyclone 200605 2006 Season Cyclone 200608 >

Help